Photometre #644[NE_1.6] AgiaMarina_Xyliatou AOT

File : 20220928_644.hum

28/09/2022,04:24:00,TEMP=18.3,BA=5.56,STAT.A=13.0,ExtBa=13.04
28/09/2022,04:27:10,TEMP=18.7,BA=5.56,STAT.A=13.0,ExtBa=12.87
28/09/2022,04:30:50,TEMP=19.0,BA=5.56,STAT.A=13.0,ExtBa=12.86
28/09/2022,04:35:11,TEMP=19.3,BA=5.56,STAT.A=13.0,ExtBa=12.88
28/09/2022,04:40:29,TEMP=19.6,BA=5.64,STAT.A=13.0,ExtBa=12.92
28/09/2022,04:46:58,TEMP=19.9,BA=5.64,STAT.A=13.0,ExtBa=12.98
28/09/2022,04:55:06,TEMP=20.3,BA=5.64,STAT.B=13.0,ExtBa=13.09
28/09/2022,05:04:25,TEMP=21.3,BA=5.48,STAT.A=13.0,ExtBa=12.81
28/09/2022,05:06:19,TEMP=21.6,BA=5.48,STAT.A=12.5,ExtBa=12.87
28/09/2022,05:08:20,TEMP=21.8,BA=5.48,STAT.A=12.5,ExtBa=12.90
28/09/2022,05:13:56,TEMP=21.7,BA=5.64,STAT.A=13.0,ExtBa=13.14
28/09/2022,05:20:21,TEMP=22.0,BA=5.64,STAT.C=13.0,ExtBa=13.29
28/09/2022,05:34:13,TEMP=23.3,BA=5.48,STAT.A=13.0,ExtBa=12.86
28/09/2022,05:36:30,TEMP=23.4,BA=5.48,STAT.A=13.0,ExtBa=13.01
28/09/2022,05:46:56,TEMP=23.4,BA=5.64,STAT.A=13.5,ExtBa=13.63
28/09/2022,05:59:40,TEMP=24.4,BA=5.64,STAT.A=13.5,ExtBa=13.75
28/09/2022,06:15:40,TEMP=25.9,BA=5.64,STAT.B=13.5,ExtBa=13.80
28/09/2022,06:24:21,TEMP=26.8,BA=5.52,STAT.D=13.0,ExtBa=13.40
28/09/2022,06:39:05,TEMP=27.3,BA=5.64,STAT.F,ExtBa=13.85
28/09/2022,06:53:55,TEMP=28.1,BA=5.52,STAT.b=13.0
28/09/2022,07:09:03,TEMP=28.3,BA=5.64,STAT.D=13.5,ExtBa=13.94
28/09/2022,07:23:55,TEMP=28.7,BA=5.64,STAT.b=13.5
28/09/2022,07:39:05,TEMP=29.2,BA=5.64,STAT.F,ExtBa=14.40
28/09/2022,07:56:19,TEMP=30.2,BA=5.48,STAT.b=13.5
28/09/2022,08:09:03,TEMP=29.1,BA=5.64,STAT.D=14.0,ExtBa=14.57
28/09/2022,08:24:04,TEMP=29.0,BA=5.64,STAT.D=14.0,ExtBa=14.60
28/09/2022,08:39:06,TEMP=30.0,BA=5.64,STAT.F,ExtBa=14.59
28/09/2022,08:54:04,TEMP=29.9,BA=5.64,STAT.D=14.0,ExtBa=14.59
28/09/2022,09:09:04,TEMP=29.3,BA=5.60,STAT.D=14.0,ExtBa=14.59
28/09/2022,09:24:04,TEMP=29.6,BA=5.60,STAT.D=14.0,ExtBa=14.57
28/09/2022,09:39:05,TEMP=29.2,BA=5.60,STAT.F,ExtBa=14.58
28/09/2022,09:54:04,TEMP=29.2,BA=5.60,STAT.D=14.0,ExtBa=14.56
28/09/2022,10:09:04,TEMP=29.3,BA=5.60,STAT.D=14.0,ExtBa=14.54
28/09/2022,10:24:04,TEMP=29.5,BA=5.60,STAT.D=13.5,ExtBa=14.53
28/09/2022,10:39:06,TEMP=29.4,BA=5.60,STAT.F,ExtBa=14.50
28/09/2022,10:54:04,TEMP=29.7,BA=5.44,STAT.D=13.5,ExtBa=13.97
28/09/2022,11:09:04,TEMP=30.2,BA=5.56,STAT.D=13.5,ExtBa=14.48
28/09/2022,11:24:04,TEMP=29.4,BA=5.56,STAT.D=13.5,ExtBa=14.47
28/09/2022,11:39:06,TEMP=29.2,BA=5.56,STAT.F,ExtBa=14.44
28/09/2022,11:54:04,TEMP=28.9,BA=5.44,STAT.D=13.5,ExtBa=13.73
28/09/2022,12:09:04,TEMP=28.5,BA=5.52,STAT.D=13.5,ExtBa=14.42
28/09/2022,12:24:04,TEMP=29.2,BA=5.56,STAT.D=13.5,ExtBa=14.38
28/09/2022,12:39:05,TEMP=29.5,BA=5.56,STAT.F,ExtBa=14.35
28/09/2022,12:54:03,TEMP=29.2,BA=5.44,STAT.D=13.5,ExtBa=13.45
28/09/2022,13:02:30,TEMP=29.1,BA=5.52,STAT.B=13.5,ExtBa=14.09
28/09/2022,13:18:28,TEMP=29.4,BA=5.44,STAT.A=13.5,ExtBa=13.92
28/09/2022,13:31:12,TEMP=29.1,BA=5.56,STAT.A=14.0,ExtBa=14.20
28/09/2022,13:41:38,TEMP=28.8,BA=5.56,STAT.A=13.5,ExtBa=14.19
28/09/2022,13:50:22,TEMP=28.9,BA=5.56,STAT.A=13.5,ExtBa=14.14
28/09/2022,13:57:47,TEMP=28.6,BA=5.56,STAT.C=13.5,ExtBa=14.06
28/09/2022,14:12:17,TEMP=28.3,BA=5.40,STAT.A=13.5,ExtBa=13.11
28/09/2022,14:14:10,TEMP=28.5,BA=5.40,STAT.A=13.5,ExtBa=13.15
28/09/2022,14:16:07,TEMP=28.4,BA=5.40,STAT.A=13.5,ExtBa=13.13
28/09/2022,14:19:04,TEMP=28.1,BA=5.40,STAT.A=13.5,ExtBa=13.18
28/09/2022,14:22:58,TEMP=27.8,BA=5.44,STAT.B=13.5,ExtBa=13.22
28/09/2022,14:32:30,TEMP=27.6,BA=5.40,STAT.A=13.5,ExtBa=13.05
28/09/2022,14:37:39,TEMP=27.0,BA=5.40,STAT.A=13.5,ExtBa=13.13
28/09/2022,14:42:55,TEMP=26.7,BA=5.52,STAT.A=13.5,ExtBa=13.11
28/09/2022,14:47:17,TEMP=26.5,BA=5.52,STAT.A=13.5,ExtBa=13.08
28/09/2022,14:50:57,TEMP=26.4,BA=5.52,STAT.A=13.5,ExtBa=13.06
28/09/2022,14:54:06,TEMP=26.2,BA=5.52,STAT.A=13.5,ExtBa=13.04